createdAt,value
2018-11-03T00:00:51.380Z,88.40
2018-11-03T00:06:20.744Z,88.50
2018-11-03T00:11:49.994Z,88.50
2018-11-03T00:17:19.345Z,88.50
2018-11-03T00:22:48.597Z,88.50
2018-11-03T00:28:17.916Z,88.30
2018-11-03T00:33:47.246Z,88.20
2018-11-03T00:39:16.580Z,88.10
2018-11-03T00:44:45.796Z,88.00
2018-11-03T00:50:16.120Z,88.00
2018-11-03T00:55:45.409Z,87.90
2018-11-03T01:01:14.698Z,87.80
2018-11-03T01:06:44.020Z,87.70
2018-11-03T01:12:13.400Z,87.90
2018-11-03T01:17:42.710Z,87.90
2018-11-03T01:23:11.963Z,87.90
2018-11-03T01:28:41.157Z,87.80
2018-11-03T01:34:10.403Z,87.90
2018-11-03T01:39:39.658Z,87.90
2018-11-03T01:45:09.149Z,87.80
2018-11-03T01:50:38.461Z,87.90
2018-11-03T01:56:07.700Z,88.00
2018-11-03T02:01:37.063Z,88.00
2018-11-03T02:07:06.468Z,88.00
2018-11-03T02:12:35.771Z,88.00
2018-11-03T02:18:05.166Z,88.10
2018-11-03T02:23:34.428Z,88.70
2018-11-03T02:29:03.782Z,88.30
2018-11-03T02:34:33.054Z,88.20
2018-11-03T02:40:02.380Z,88.20
2018-11-03T02:45:31.677Z,88.40
2018-11-03T02:51:01.043Z,88.40
2018-11-03T02:56:30.280Z,88.40
2018-11-03T03:01:59.591Z,88.40
2018-11-03T03:07:28.835Z,88.50
2018-11-03T03:12:58.080Z,88.50
2018-11-03T03:18:27.335Z,88.40
2018-11-03T03:23:56.527Z,88.40
2018-11-03T03:29:25.890Z,88.50
2018-11-03T03:34:55.087Z,88.40
2018-11-03T03:40:24.340Z,88.40
2018-11-03T03:45:53.558Z,88.50
2018-11-03T03:51:23.536Z,88.50
2018-11-03T03:56:53.528Z,88.50
2018-11-03T04:02:22.751Z,88.60
2018-11-03T04:07:51.962Z,88.50
2018-11-03T04:13:21.208Z,88.60
2018-11-03T04:18:50.978Z,88.40
2018-11-03T04:24:20.148Z,88.50
2018-11-03T04:29:49.362Z,88.50
2018-11-03T04:35:18.733Z,88.50
2018-11-03T04:40:47.945Z,88.60
2018-11-03T04:46:19.282Z,88.50
2018-11-03T04:51:48.544Z,88.50
2018-11-03T04:57:17.778Z,88.40
2018-11-03T05:02:47.052Z,88.50
2018-11-03T05:08:16.281Z,88.60
2018-11-03T05:13:45.567Z,88.60
2018-11-03T05:19:14.876Z,88.60
2018-11-03T05:24:44.126Z,88.50
2018-11-03T05:30:13.429Z,88.60
2018-11-03T05:35:42.675Z,88.60
2018-11-03T05:41:11.930Z,88.60
2018-11-03T05:46:41.308Z,88.40
2018-11-03T05:52:10.506Z,88.30
2018-11-03T05:57:39.853Z,88.10
2018-11-03T06:03:09.108Z,88.20
2018-11-03T06:08:38.540Z,88.00
2018-11-03T06:14:07.909Z,87.90
2018-11-03T06:19:37.131Z,87.80
2018-11-03T06:25:08.391Z,87.90
2018-11-03T06:30:37.727Z,87.80
2018-11-03T06:36:07.087Z,87.80
2018-11-03T06:41:36.416Z,87.70
2018-11-03T06:47:05.910Z,87.30
2018-11-03T06:52:35.133Z,87.60
2018-11-03T06:58:04.368Z,87.40
2018-11-03T07:03:33.729Z,87.40
2018-11-03T07:09:03.024Z,86.60
2018-11-03T07:14:32.307Z,87.10
2018-11-03T07:20:01.591Z,87.20
2018-11-03T07:25:30.870Z,87.10
2018-11-03T07:31:00.143Z,86.80
2018-11-03T07:36:29.343Z,86.70
2018-11-03T07:41:58.538Z,86.80
2018-11-03T07:47:27.856Z,86.60
2018-11-03T07:52:57.083Z,86.60
2018-11-03T07:58:26.421Z,86.60
2018-11-03T08:03:55.661Z,86.50
2018-11-03T08:09:24.863Z,86.40
2018-11-03T08:14:54.099Z,86.30
2018-11-03T08:20:23.357Z,86.40
2018-11-03T08:25:52.925Z,86.20
2018-11-03T08:31:22.250Z,86.30
2018-11-03T08:36:51.421Z,86.10
2018-11-03T08:42:20.735Z,85.90
2018-11-03T08:47:51.104Z,85.70
2018-11-03T08:53:20.504Z,85.50
2018-11-03T08:58:49.761Z,85.30
2018-11-03T09:04:18.979Z,85.00
2018-11-03T09:09:49.254Z,83.80
2018-11-03T09:15:19.050Z,83.70
2018-11-03T09:20:48.307Z,83.30
2018-11-03T09:26:18.780Z,83.20
2018-11-03T09:31:48.568Z,82.70
2018-11-03T09:37:17.871Z,82.80
2018-11-03T09:42:49.039Z,82.50
2018-11-03T09:48:18.767Z,82.10
2018-11-03T09:53:48.292Z,82.10
2018-11-03T09:59:19.295Z,81.90
2018-11-03T10:04:48.769Z,81.40
2018-11-03T10:10:19.348Z,81.30
2018-11-03T10:15:49.286Z,80.40
2018-11-03T10:21:18.666Z,79.90
2018-11-03T10:26:48.961Z,79.60
2018-11-03T10:32:18.344Z,79.40
2018-11-03T10:37:47.708Z,79.00
2018-11-03T10:43:17.185Z,79.20
2018-11-03T10:48:46.557Z,79.40
2018-11-03T10:54:16.855Z,79.00
2018-11-03T10:59:46.120Z,79.10
2018-11-03T11:05:20.834Z,78.90
2018-11-03T11:10:55.572Z,78.50
2018-11-03T11:16:24.970Z,78.70
2018-11-03T11:21:54.264Z,78.80
2018-11-03T11:27:23.600Z,79.20
2018-11-03T11:32:52.940Z,79.00
2018-11-03T11:38:22.176Z,79.00
2018-11-03T11:43:51.431Z,79.20
2018-11-03T11:49:20.836Z,79.60
2018-11-03T11:54:50.273Z,79.50
2018-11-03T12:00:20.355Z,79.80
2018-11-03T12:05:51.538Z,80.00
2018-11-03T12:11:20.944Z,79.40
2018-11-03T12:16:50.619Z,79.80
2018-11-03T12:22:22.023Z,79.90
2018-11-03T12:27:51.376Z,79.50
2018-11-03T12:33:20.930Z,79.30
2018-11-03T12:38:52.232Z,79.60
2018-11-03T12:44:21.839Z,79.50
2018-11-03T12:49:55.304Z,79.60
2018-11-03T12:55:24.979Z,80.00
2018-11-03T13:00:54.297Z,79.80
2018-11-03T13:06:23.628Z,79.90
2018-11-03T13:11:53.188Z,79.70
2018-11-03T13:17:24.536Z,79.40
2018-11-03T13:22:54.121Z,79.40
2018-11-03T13:28:23.476Z,79.50
2018-11-03T13:33:53.855Z,79.60
2018-11-03T13:39:23.320Z,79.90
2018-11-03T13:44:53.124Z,80.00
2018-11-03T13:50:22.444Z,80.00
2018-11-03T13:55:52.250Z,80.00
2018-11-03T14:01:21.625Z,80.10
2018-11-03T14:06:51.121Z,79.80
2018-11-03T14:12:20.480Z,79.90
2018-11-03T14:17:49.904Z,79.90
2018-11-03T14:23:19.349Z,79.90
2018-11-03T14:28:49.737Z,80.00
2018-11-03T14:34:19.260Z,80.10
2018-11-03T14:39:49.503Z,80.10
2018-11-03T14:45:18.865Z,80.30
2018-11-03T14:50:48.168Z,79.90
2018-11-03T14:56:18.514Z,80.20
2018-11-03T15:01:47.916Z,80.00
2018-11-03T15:07:17.169Z,80.00
2018-11-03T15:12:46.528Z,80.20
2018-11-03T15:18:16.940Z,80.10
2018-11-03T15:23:47.245Z,80.30
2018-11-03T15:29:16.599Z,80.40
2018-11-03T15:34:45.958Z,80.50
2018-11-03T15:40:16.181Z,80.60
2018-11-03T15:45:45.499Z,80.70
2018-11-03T15:51:15.891Z,80.90
2018-11-03T15:56:45.185Z,81.10
2018-11-03T16:02:14.637Z,81.30
2018-11-03T16:07:44.577Z,81.40
2018-11-03T16:13:13.763Z,81.70
2018-11-03T16:18:43.000Z,81.80
2018-11-03T16:24:12.335Z,82.10
2018-11-03T16:29:41.657Z,82.20
2018-11-03T16:35:10.893Z,82.40
2018-11-03T16:40:42.285Z,82.70
2018-11-03T16:46:11.518Z,82.80
2018-11-03T16:51:40.713Z,83.00
2018-11-03T16:57:09.931Z,83.10
2018-11-03T17:02:39.269Z,83.20
2018-11-03T17:08:10.558Z,83.40
2018-11-03T17:13:39.818Z,83.60
2018-11-03T17:19:09.084Z,83.70
2018-11-03T17:24:38.320Z,83.80
2018-11-03T17:30:10.650Z,83.90
2018-11-03T17:35:40.728Z,84.00
2018-11-03T17:41:09.932Z,84.10
2018-11-03T17:46:39.210Z,84.20
2018-11-03T17:52:08.421Z,84.30
2018-11-03T17:57:37.666Z,84.30
2018-11-03T18:03:06.891Z,84.40
2018-11-03T18:08:36.286Z,84.40
2018-11-03T18:14:10.456Z,84.60
2018-11-03T18:19:39.796Z,84.60
2018-11-03T18:25:10.208Z,84.70
2018-11-03T18:30:39.547Z,84.90
2018-11-03T18:36:08.824Z,85.00
2018-11-03T18:41:38.082Z,86.20
2018-11-03T18:47:07.297Z,86.40
2018-11-03T18:52:36.536Z,86.40
2018-11-03T18:58:05.827Z,86.50
2018-11-03T19:03:35.082Z,86.60
2018-11-03T19:09:05.901Z,86.80
2018-11-03T19:14:35.430Z,86.90
2018-11-03T19:20:04.792Z,85.90
2018-11-03T19:25:34.057Z,86.00
2018-11-03T19:31:03.546Z,86.10
2018-11-03T19:36:32.848Z,87.20
2018-11-03T19:42:02.254Z,87.30
2018-11-03T19:47:31.732Z,86.40
2018-11-03T19:53:01.088Z,86.50
2018-11-03T19:58:30.389Z,87.20
2018-11-03T20:03:59.653Z,86.60
2018-11-03T20:09:28.963Z,86.70
2018-11-03T20:14:58.239Z,86.80
2018-11-03T20:20:27.556Z,86.90
2018-11-03T20:25:56.853Z,86.90
2018-11-03T20:31:26.058Z,86.80
2018-11-03T20:36:55.425Z,87.20
2018-11-03T20:42:24.696Z,86.80
2018-11-03T20:47:53.956Z,87.10
2018-11-03T20:53:23.273Z,86.70
2018-11-03T20:58:52.551Z,86.60
2018-11-03T21:04:21.841Z,86.60
2018-11-03T21:09:51.112Z,86.60
2018-11-03T21:15:20.386Z,86.60
2018-11-03T21:20:49.757Z,86.50
2018-11-03T21:26:19.107Z,86.50
2018-11-03T21:31:48.493Z,86.50
2018-11-03T21:37:21.947Z,86.50
2018-11-03T21:42:51.296Z,86.50
2018-11-03T21:48:20.686Z,86.50
2018-11-03T21:53:51.080Z,86.60
2018-11-03T21:59:20.536Z,86.80
2018-11-03T22:04:49.994Z,86.60
2018-11-03T22:10:19.396Z,86.50
2018-11-03T22:15:49.247Z,86.60
2018-11-03T22:21:19.548Z,86.50
2018-11-03T22:26:51.008Z,86.40
2018-11-03T22:32:20.650Z,86.50
2018-11-03T22:37:50.196Z,86.50
2018-11-03T22:43:19.532Z,86.50
2018-11-03T22:48:49.240Z,86.50
2018-11-03T22:54:23.892Z,86.60
2018-11-03T22:59:53.272Z,86.70
2018-11-03T23:05:23.265Z,86.60
2018-11-03T23:10:52.620Z,86.60
2018-11-03T23:16:22.027Z,86.60
2018-11-03T23:21:51.408Z,86.60
2018-11-03T23:27:21.703Z,86.70
2018-11-03T23:32:51.119Z,86.80
2018-11-03T23:38:20.526Z,86.70
2018-11-03T23:43:49.960Z,86.70
2018-11-03T23:49:19.734Z,86.70
2018-11-03T23:54:49.088Z,86.80
